Time;durP1;ratioP1;P1;durP2;ratioP2;P2;SDS_P1;SDS_P2;PMS_P1;PMS_P2;Temp;Humidity;BMP_temperature;BMP_pressure;BME280_temperature;BME280_humidity;BME280_pressure;Samples;Min_cycle;Max_cycle;Signal;HPM_P1;HPM_P2
2022/07/01 00:00:56;;;;;;;5.88;5.00;;;21.80;99.90;;;;;;5017981;28;20590;-69
2022/07/01 00:03:22;;;;;;;5.53;5.03;;;21.80;99.90;;;;;;5037616;28;20280;-70
2022/07/01 00:05:48;;;;;;;6.10;5.07;;;21.90;99.90;;;;;;5042456;28;20200;-69
2022/07/01 00:08:13;;;;;;;5.78;4.93;;;21.90;99.90;;;;;;5036177;28;20189;-69
2022/07/01 00:10:39;;;;;;;5.85;5.32;;;22.00;99.90;;;;;;5032917;28;20183;-69
2022/07/01 00:13:06;;;;;;;6.25;5.10;;;22.10;99.90;;;;;;5032599;28;20176;-70
2022/07/01 00:15:32;;;;;;;5.88;5.38;;;22.10;99.90;;;;;;5024868;28;20550;-69
2022/07/01 00:17:58;;;;;;;4.85;4.45;;;22.10;99.90;;;;;;5013135;28;20169;-70
2022/07/01 00:20:24;;;;;;;6.05;5.50;;;22.00;99.90;;;;;;5012955;28;20165;-70
2022/07/01 00:22:50;;;;;;;5.18;4.55;;;22.10;99.90;;;;;;5012611;28;20177;-70
2022/07/01 00:25:15;;;;;;;5.82;5.32;;;22.10;99.90;;;;;;5018891;28;20220;-70
2022/07/01 00:27:41;;;;;;;5.70;5.20;;;22.00;99.90;;;;;;5043479;28;20242;-70
2022/07/01 00:30:08;;;;;;;5.10;4.38;;;22.00;99.90;;;;;;5041358;28;20188;-70
2022/07/01 00:32:34;;;;;;;5.35;4.80;;;22.00;99.90;;;;;;5041091;28;20200;-70
2022/07/01 00:35:00;;;;;;;5.00;4.47;;;21.90;99.90;;;;;;5039403;28;20239;-70
2022/07/01 00:37:26;;;;;;;4.75;4.45;;;21.80;99.90;;;;;;5032367;28;20315;-70
2022/07/01 00:39:51;;;;;;;5.20;4.80;;;21.90;99.90;;;;;;5032237;28;20184;-69
2022/07/01 00:42:17;;;;;;;7.50;4.93;;;21.80;99.90;;;;;;5030684;28;20223;-69
2022/07/01 00:44:42;;;;;;;5.88;4.35;;;21.80;99.90;;;;;;5031922;28;20215;-72
2022/07/01 00:47:11;;;;;;;5.40;4.32;;;21.90;99.90;;;;;;5032269;28;20207;-72
2022/07/01 00:49:38;;;;;;;10.38;4.85;;;21.90;99.90;;;;;;5032219;28;20197;-72
2022/07/01 00:52:07;;;;;;;4.80;3.85;;;21.80;99.90;;;;;;5029299;28;20196;-72
2022/07/01 00:54:35;;;;;;;6.10;3.45;;;21.90;99.90;;;;;;5012440;28;20185;-72
2022/07/01 00:57:11;;;;;;;3.58;3.28;;;21.90;99.90;;;;;;5012444;28;20181;-72
2022/07/01 00:59:38;;;;;;;3.75;3.42;;;21.90;99.90;;;;;;5012269;28;20192;-72
2022/07/01 01:02:06;;;;;;;3.17;2.97;;;22.00;99.90;;;;;;5011703;28;20252;-71
2022/07/01 01:04:32;;;;;;;3.58;3.17;;;22.00;99.90;;;;;;5012364;28;20211;-72
2022/07/01 01:07:00;;;;;;;5.25;3.33;;;21.90;99.90;;;;;;5012296;28;20279;-72
2022/07/01 01:09:25;;;;;;;13.50;3.63;;;21.90;99.90;;;;;;5023025;28;20204;-72
2022/07/01 01:11:51;;;;;;;5.35;3.33;;;21.70;99.90;;;;;;5031611;28;20215;-72
2022/07/01 01:14:17;;;;;;;3.00;2.70;;;21.60;99.90;;;;;;5031555;28;20208;-72
2022/07/01 01:16:42;;;;;;;2.67;2.47;;;21.60;99.90;;;;;;5021533;28;20176;-72
2022/07/01 01:19:08;;;;;;;3.05;2.85;;;21.60;99.90;;;;;;5011871;28;20554;-72
2022/07/01 01:21:34;;;;;;;3.58;2.70;;;21.70;99.90;;;;;;5011985;28;20173;-72
2022/07/01 01:24:00;;;;;;;6.32;3.17;;;21.80;99.90;;;;;;5011756;28;20197;-72
2022/07/01 01:26:26;;;;;;;4.43;2.80;;;21.80;99.90;;;;;;5027176;28;20211;-73
2022/07/01 01:28:52;;;;;;;2.50;2.35;;;21.70;99.90;;;;;;5030617;28;20196;-72
2022/07/01 01:31:30;;;;;;;2.53;2.33;;;21.60;99.90;;;;;;5031570;28;20185;-73
2022/07/01 01:33:56;;;;;;;2.00;1.90;;;21.70;99.90;;;;;;5025634;28;20352;-72
2022/07/01 01:36:22;;;;;;;2.78;2.58;;;21.70;99.90;;;;;;5011970;28;20176;-72
2022/07/01 01:38:48;;;;;;;2.22;2.13;;;21.70;99.90;;;;;;5011554;28;20177;-72
2022/07/01 01:41:13;;;;;;;2.30;2.20;;;21.70;99.90;;;;;;5011981;28;20536;-72
2022/07/01 01:43:39;;;;;;;3.60;2.50;;;21.70;99.90;;;;;;5013749;28;20282;-72
2022/07/01 01:46:05;;;;;;;4.97;2.53;;;21.70;99.90;;;;;;5014758;28;20204;-72
2022/07/01 01:48:31;;;;;;;2.72;2.13;;;21.70;99.90;;;;;;5015881;28;20161;-72
2022/07/01 01:50:57;;;;;;;2.47;2.30;;;21.80;99.90;;;;;;5016658;28;20173;-72
2022/07/01 01:53:23;;;;;;;4.20;2.20;;;21.90;99.90;;;;;;5035253;28;20227;-71
2022/07/01 01:55:50;;;;;;;2.83;2.30;;;21.90;99.90;;;;;;5035585;28;20594;-72
2022/07/01 01:58:15;;;;;;;3.50;2.47;;;21.90;99.90;;;;;;5035121;28;20264;-72
2022/07/01 02:00:41;;;;;;;2.17;1.98;;;21.80;99.90;;;;;;5025611;28;20264;-72
2022/07/01 02:03:07;;;;;;;2.35;2.25;;;21.70;99.90;;;;;;5015351;28;20256;-72
2022/07/01 02:05:35;;;;;;;1.90;1.80;;;21.60;99.90;;;;;;5015538;28;20554;-72
2022/07/01 02:08:01;;;;;;;3.47;2.47;;;21.50;99.90;;;;;;5015570;28;20180;-71
2022/07/01 02:10:27;;;;;;;2.10;2.00;;;21.40;99.90;;;;;;5015587;28;20166;-73
2022/07/01 02:12:53;;;;;;;2.55;2.35;;;21.30;99.90;;;;;;5015025;28;20193;-72
2022/07/01 02:15:18;;;;;;;3.28;2.42;;;21.20;99.90;;;;;;5015098;28;20260;-73
2022/07/01 02:17:44;;;;;;;2.85;2.20;;;21.00;99.90;;;;;;5015577;28;20256;-72
2022/07/01 02:20:14;;;;;;;2.65;2.40;;;21.00;99.90;;;;;;5015452;28;20213;-72
2022/07/01 02:22:40;;;;;;;3.08;2.88;;;21.00;99.90;;;;;;5015104;28;20176;-72
2022/07/01 02:25:06;;;;;;;2.85;2.63;;;20.90;99.90;;;;;;5015189;28;20205;-72
2022/07/01 02:27:32;;;;;;;3.90;2.47;;;20.70;99.90;;;;;;5014933;28;20209;-72
2022/07/01 02:29:57;;;;;;;2.45;2.28;;;20.70;99.90;;;;;;5014658;28;20287;-72
2022/07/01 02:32:23;;;;;;;3.05;2.40;;;20.60;99.90;;;;;;5015119;28;20225;-72
2022/07/01 02:34:48;;;;;;;2.58;2.47;;;20.50;99.90;;;;;;5015094;28;20700;-72
2022/07/01 02:37:14;;;;;;;2.53;2.33;;;20.50;99.90;;;;;;5014987;28;20192;-72
2022/07/01 02:39:40;;;;;;;2.92;2.72;;;20.50;99.90;;;;;;5015099;28;20672;-72
2022/07/01 02:42:26;;;;;;;6.30;2.50;;;20.60;99.90;;;;;;5014820;28;20173;-72
2022/07/01 02:44:55;;;;;;;2.97;2.15;;;20.50;99.90;;;;;;5015082;28;20185;-72
2022/07/01 02:47:23;;;;;;;3.28;2.67;;;20.50;99.90;;;;;;5014441;28;20205;-72
2022/07/01 02:49:51;;;;;;;2.85;2.53;;;20.60;99.90;;;;;;5013697;28;20220;-72
2022/07/01 02:52:17;;;;;;;3.10;2.47;;;20.60;99.90;;;;;;5014610;28;20260;-72
2022/07/01 02:54:43;;;;;;;2.78;2.20;;;20.60;99.90;;;;;;5014719;28;20263;-72
2022/07/01 02:57:09;;;;;;;2.20;2.10;;;20.60;99.90;;;;;;5014338;28;20177;-72
2022/07/01 02:59:35;;;;;;;3.17;2.58;;;20.60;99.90;;;;;;5014968;28;20534;-72
2022/07/01 03:02:00;;;;;;;2.53;2.33;;;20.70;99.90;;;;;;5012535;28;21423;-71
2022/07/01 03:04:26;;;;;;;2.72;2.50;;;20.80;99.90;;;;;;5027469;28;20592;-72
2022/07/01 03:06:52;;;;;;;2.40;2.30;;;20.70;99.90;;;;;;5027407;28;20261;-72
2022/07/01 03:09:18;;;;;;;2.55;2.25;;;20.60;99.90;;;;;;5034427;28;20169;-72
2022/07/01 03:11:44;;;;;;;3.10;2.40;;;20.60;99.90;;;;;;5034020;28;20573;-72
2022/07/01 03:14:09;;;;;;;2.50;2.30;;;20.40;99.90;;;;;;5032882;28;20295;-71
2022/07/01 03:16:35;;;;;;;3.80;2.55;;;20.30;99.90;;;;;;5022679;28;20188;-71
2022/07/01 03:19:01;;;;;;;2.47;2.20;;;20.30;99.90;;;;;;5014440;28;20537;-72
2022/07/01 03:21:27;;;;;;;2.92;2.72;;;20.30;99.90;;;;;;5014316;28;20169;-72
2022/07/01 03:23:53;;;;;;;2.50;2.40;;;20.30;99.90;;;;;;5013296;28;20607;-71
2022/07/01 03:26:18;;;;;;;2.90;2.70;;;20.20;99.90;;;;;;5014193;28;20197;-71
2022/07/01 03:28:44;;;;;;;2.22;2.10;;;20.20;99.90;;;;;;5014135;28;20170;-72
2022/07/01 03:31:10;;;;;;;2.20;2.10;;;20.20;99.90;;;;;;5014098;28;20213;-71
2022/07/01 03:33:36;;;;;;;2.65;2.10;;;20.10;99.90;;;;;;5013990;28;20202;-72
2022/07/01 03:36:01;;;;;;;2.83;2.63;;;20.10;99.90;;;;;;5014056;28;20188;-71
2022/07/01 03:38:27;;;;;;;2.00;1.90;;;20.10;99.90;;;;;;5014147;28;20675;-72
2022/07/01 03:40:53;;;;;;;2.30;2.10;;;20.10;99.90;;;;;;5014175;28;20568;-72
2022/07/01 03:43:18;;;;;;;2.30;2.20;;;20.20;99.90;;;;;;5017294;28;20181;-72
2022/07/01 03:45:44;;;;;;;2.20;2.10;;;20.10;99.90;;;;;;5033935;28;20199;-72
2022/07/01 03:48:10;;;;;;;5.43;2.42;;;20.20;99.90;;;;;;5043371;28;20177;-72
2022/07/01 03:50:36;;;;;;;2.80;2.20;;;20.20;99.90;;;;;;5027083;28;20272;-72
2022/07/01 03:55:46;;;;;;;5.47;1.80;;;20.20;99.90;;;;;;5023698;28;20199;-72
2022/07/01 03:58:11;;;;;;;2.40;2.10;;;20.20;99.90;;;;;;5022149;28;20706;-72
2022/07/01 04:00:38;;;;;;;2.10;1.90;;;20.20;99.90;;;;;;5018814;28;20178;-73
2022/07/01 04:03:05;;;;;;;2.45;2.25;;;20.20;99.90;;;;;;5015628;28;20185;-72
2022/07/01 04:05:36;;;;;;;1.33;1.33;;;20.30;99.90;;;;;;5017890;28;20209;-72
2022/07/01 04:08:07;;;;;;;1.98;1.88;;;20.40;99.90;;;;;;5021295;28;20191;-72
2022/07/01 04:10:33;;;;;;;2.08;1.77;;;20.50;99.90;;;;;;5025140;28;20177;-73
2022/07/01 04:13:03;;;;;;;1.55;1.55;;;20.60;99.90;;;;;;5028925;28;20597;-72
2022/07/01 04:15:28;;;;;;;1.95;1.85;;;20.50;99.90;;;;;;5021911;28;20172;-72
2022/07/01 04:17:55;;;;;;;1.70;1.70;;;20.50;99.90;;;;;;5023148;28;20184;-72
2022/07/01 04:20:20;;;;;;;2.25;1.65;;;20.50;99.90;;;;;;5021826;28;20227;-72
2022/07/01 04:22:46;;;;;;;1.95;1.80;;;20.50;99.90;;;;;;5025124;28;20185;-73
2022/07/01 04:25:12;;;;;;;1.55;1.45;;;20.40;99.90;;;;;;5025975;28;20630;-72
2022/07/01 04:27:37;;;;;;;2.60;1.38;;;20.50;99.90;;;;;;5022301;28;20211;-72
2022/07/01 04:30:03;;;;;;;1.98;1.88;;;20.70;99.90;;;;;;5029036;28;20180;-72
2022/07/01 04:32:30;;;;;;;4.00;1.65;;;20.70;99.90;;;;;;5023540;28;20178;-72
2022/07/01 04:34:56;;;;;;;2.80;1.80;;;20.70;99.90;;;;;;5021344;28;20189;-72
2022/07/01 04:37:21;;;;;;;1.52;1.42;;;20.70;99.90;;;;;;5024069;28;20193;-75
2022/07/01 04:39:47;;;;;;;1.60;1.50;;;20.60;99.90;;;;;;5025031;28;20263;-75
2022/07/01 04:42:14;;;;;;;2.22;1.95;;;20.50;99.90;;;;;;5022968;28;20173;-75
2022/07/01 04:44:40;;;;;;;2.70;1.55;;;20.40;99.90;;;;;;5019488;28;20197;-75
2022/07/01 04:47:06;;;;;;;1.30;1.20;;;20.30;99.90;;;;;;5028694;28;20697;-74
2022/07/01 04:49:32;;;;;;;1.60;1.50;;;20.30;99.90;;;;;;5020627;28;20179;-74
2022/07/01 04:51:58;;;;;;;1.38;1.38;;;20.30;99.90;;;;;;5034378;28;20863;-74
2022/07/01 04:54:25;;;;;;;1.35;1.30;;;20.40;99.90;;;;;;5026685;28;20238;-73
2022/07/01 04:56:52;;;;;;;2.00;1.25;;;20.40;99.90;;;;;;5014226;28;20184;-74
2022/07/01 04:59:18;;;;;;;1.52;1.42;;;20.50;99.90;;;;;;5012224;28;20181;-75
2022/07/01 05:01:48;;;;;;;4.22;1.30;;;20.50;99.90;;;;;;5012287;28;20203;-75
2022/07/01 05:04:15;;;;;;;2.22;1.40;;;20.60;99.90;;;;;;5022512;28;20201;-74
2022/07/01 05:06:41;;;;;;;3.42;1.55;;;20.80;99.90;;;;;;5039574;28;20303;-74
2022/07/01 05:09:07;;;;;;;1.38;1.38;;;20.80;99.90;;;;;;5032344;28;20181;-74
2022/07/01 05:11:33;;;;;;;1.70;1.60;;;20.80;99.90;;;;;;5018855;28;20187;-74
2022/07/01 05:13:59;;;;;;;4.95;1.63;;;20.90;99.90;;;;;;5022476;28;20204;-74
2022/07/01 05:16:24;;;;;;;1.50;1.40;;;20.90;99.90;;;;;;5030550;28;20409;-75
2022/07/01 05:24:19;;;;;;;1.50;1.40;;;21.00;99.90;;;;;;5032033;28;20230;-76
2022/07/01 05:26:44;;;;;;;2.13;1.60;;;21.00;99.90;;;;;;5031948;28;20283;-74
2022/07/01 05:29:10;;;;;;;1.40;1.30;;;21.10;99.90;;;;;;5027589;28;20192;-74
2022/07/01 05:31:36;;;;;;;2.63;1.42;;;21.20;99.90;;;;;;5022068;28;20192;-74
2022/07/01 05:34:01;;;;;;;1.63;1.50;;;21.10;99.90;;;;;;5013076;28;20288;-75
2022/07/01 05:36:27;;;;;;;1.08;1.08;;;21.20;99.90;;;;;;5011555;28;20177;-75
2022/07/01 05:38:53;;;;;;;4.13;2.00;;;21.20;99.90;;;;;;5011736;28;20187;-73
2022/07/01 05:41:18;;;;;;;1.90;1.75;;;21.50;99.90;;;;;;5027110;28;20208;-73
2022/07/01 05:43:44;;;;;;;1.40;1.40;;;21.70;99.90;;;;;;5011501;28;20189;-75
2022/07/01 05:46:10;;;;;;;1.40;1.40;;;21.90;99.90;;;;;;5011795;28;20209;-75
2022/07/01 05:48:36;;;;;;;1.23;1.23;;;22.10;99.90;;;;;;5019287;28;20179;-76
2022/07/01 05:51:02;;;;;;;1.70;1.60;;;22.40;99.90;;;;;;5032092;28;20175;-75
2022/07/01 05:53:28;;;;;;;2.15;1.52;;;22.70;99.90;;;;;;5018979;28;20219;-76
2022/07/01 05:55:54;;;;;;;1.98;1.70;;;22.70;99.90;;;;;;5021418;28;20239;-76
2022/07/01 05:58:19;;;;;;;1.55;1.45;;;22.90;99.90;;;;;;5033645;28;20207;-75
2022/07/01 06:00:45;;;;;;;1.40;1.40;;;23.00;99.90;;;;;;5027097;28;20192;-75
2022/07/01 06:03:12;;;;;;;1.30;1.30;;;23.00;99.90;;;;;;5023860;28;20193;-75
2022/07/01 06:05:38;;;;;;;1.52;1.42;;;22.90;99.90;;;;;;5038610;28;20179;-76
2022/07/01 06:08:05;;;;;;;1.48;1.38;;;22.80;99.90;;;;;;5025540;28;20259;-73
2022/07/01 06:10:31;;;;;;;1.42;1.40;;;22.80;99.90;;;;;;5037198;28;20164;-74
2022/07/01 06:12:57;;;;;;;2.10;1.30;;;22.80;99.90;;;;;;5014215;28;20181;-73
2022/07/01 06:15:23;;;;;;;1.77;1.67;;;22.70;99.90;;;;;;5031837;28;20320;-74
2022/07/01 06:17:50;;;;;;;1.60;1.50;;;22.80;99.90;;;;;;5041302;28;20242;-75
2022/07/01 06:20:16;;;;;;;1.77;1.67;;;22.80;99.90;;;;;;5030414;28;20740;-74
2022/07/01 06:22:41;;;;;;;1.52;1.50;;;22.80;99.90;;;;;;5029142;28;20177;-75
2022/07/01 06:25:07;;;;;;;2.08;1.45;;;22.70;99.90;;;;;;5030612;28;20272;-78
2022/07/01 06:27:42;;;;;;;1.48;1.48;;;22.60;99.90;;;;;;5013127;28;20201;-73
2022/07/01 06:30:09;;;;;;;1.40;1.40;;;22.60;99.90;;;;;;5010802;28;20184;-73
2022/07/01 06:32:34;;;;;;;1.30;1.30;;;22.40;99.90;;;;;;5013215;28;20169;-74
2022/07/01 06:35:00;;;;;;;1.50;1.33;;;22.40;99.90;;;;;;5014897;28;20266;-75
2022/07/01 06:37:26;;;;;;;2.15;1.95;;;22.40;99.90;;;;;;5015329;28;20264;-73
2022/07/01 06:39:51;;;;;;;1.80;1.70;;;22.30;99.90;;;;;;5014989;28;20180;-73
2022/07/01 06:42:17;;;;;;;1.88;1.77;;;22.10;99.90;;;;;;5021765;28;20218;-72
2022/07/01 06:44:42;;;;;;;2.95;1.52;;;22.20;99.90;;;;;;5034522;28;20219;-74
2022/07/01 06:47:08;;;;;;;2.20;1.58;;;22.10;99.90;;;;;;5034052;28;20220;-72
2022/07/01 06:49:34;;;;;;;1.70;1.60;;;22.10;99.90;;;;;;5034267;28;20671;-72
2022/07/01 06:51:59;;;;;;;1.63;1.52;;;22.20;99.90;;;;;;5020754;28;20177;-72
2022/07/01 06:54:25;;;;;;;1.98;1.88;;;22.30;99.90;;;;;;5014428;28;20193;-72
2022/07/01 06:56:51;;;;;;;2.85;1.50;;;22.30;99.90;;;;;;5014667;28;20189;-72
2022/07/01 06:59:17;;;;;;;1.90;1.65;;;22.30;99.90;;;;;;5014460;28;20185;-72
2022/07/01 07:01:42;;;;;;;1.63;1.60;;;22.20;99.90;;;;;;5014470;28;20177;-72
2022/07/01 07:04:08;;;;;;;1.55;1.52;;;22.20;99.90;;;;;;5014213;28;20203;-72
2022/07/01 07:06:33;;;;;;;1.67;1.55;;;22.10;99.90;;;;;;5014556;28;20687;-73
2022/07/01 07:08:59;;;;;;;1.77;1.67;;;22.10;99.90;;;;;;5014270;28;20243;-72
2022/07/01 07:11:26;;;;;;;1.65;1.60;;;22.20;99.90;;;;;;5014751;28;20173;-72
2022/07/01 07:13:52;;;;;;;1.60;1.50;;;22.20;99.90;;;;;;5014330;28;20189;-72
2022/07/01 07:16:21;;;;;;;1.63;1.40;;;22.00;99.90;;;;;;5014432;28;20300;-72
2022/07/01 07:18:48;;;;;;;1.40;1.30;;;21.90;99.90;;;;;;5014636;28;20579;-72
2022/07/01 07:21:13;;;;;;;1.75;1.20;;;21.70;99.90;;;;;;5014269;28;20183;-72
2022/07/01 07:23:39;;;;;;;1.70;1.60;;;21.50;99.90;;;;;;5014128;28;20189;-73
2022/07/01 07:26:05;;;;;;;2.45;1.67;;;21.30;99.90;;;;;;5023092;28;20260;-72
2022/07/01 07:28:30;;;;;;;1.30;1.30;;;21.00;99.90;;;;;;5046010;28;20199;-72
2022/07/01 07:30:56;;;;;;;1.73;1.50;;;20.90;99.90;;;;;;5053906;28;20195;-72
2022/07/01 07:33:22;;;;;;;1.30;1.20;;;20.60;99.90;;;;;;5040026;28;20203;-71
2022/07/01 07:35:48;;;;;;;1.63;1.30;;;20.50;99.90;;;;;;5033793;28;20225;-72
2022/07/01 07:38:13;;;;;;;1.15;1.15;;;20.40;99.90;;;;;;5044519;28;20168;-72
2022/07/01 07:40:40;;;;;;;1.70;1.60;;;20.20;99.90;;;;;;5053722;28;20614;-72
2022/07/01 07:43:07;;;;;;;3.70;1.65;;;20.10;99.90;;;;;;5049125;28;20217;-72
2022/07/01 07:45:33;;;;;;;0.98;0.98;;;19.90;99.90;;;;;;5014169;28;20161;-71
2022/07/01 07:48:00;;;;;;;0.52;0.52;;;19.90;99.90;;;;;;5014251;28;20298;-72
2022/07/01 07:50:26;;;;;;;0.77;0.77;;;19.90;99.90;;;;;;5013427;28;20176;-72
2022/07/01 07:52:52;;;;;;;1.02;0.68;;;19.80;99.90;;;;;;5019268;28;20556;-72
2022/07/01 07:55:18;;;;;;;0.70;0.70;;;19.90;99.90;;;;;;5025032;28;20201;-72
2022/07/01 07:57:43;;;;;;;0.75;0.45;;;19.80;99.90;;;;;;5026099;28;20675;-72
2022/07/01 08:00:11;;;;;;;1.15;0.60;;;19.80;99.90;;;;;;5027522;28;20555;-73
2022/07/01 08:02:37;;;;;;;0.60;0.60;;;19.90;99.90;;;;;;5019378;28;20191;-73
2022/07/01 08:05:03;;;;;;;3.00;0.70;;;20.00;99.90;;;;;;5025173;28;20231;-72
2022/07/01 08:07:29;;;;;;;0.50;0.50;;;20.10;99.90;;;;;;5021912;28;20232;-73
2022/07/01 08:09:55;;;;;;;0.73;0.73;;;20.40;99.90;;;;;;5027899;28;20189;-72
2022/07/01 08:12:22;;;;;;;0.50;0.50;;;20.90;99.90;;;;;;5021918;28;20219;-72
2022/07/01 08:14:47;;;;;;;1.08;0.40;;;21.30;99.90;;;;;;5025655;28;20292;-72
2022/07/01 08:17:13;;;;;;;0.45;0.45;;;21.50;99.90;;;;;;5026600;28;20255;-72
2022/07/01 08:19:39;;;;;;;0.50;0.50;;;21.80;99.90;;;;;;5016538;28;20189;-72
2022/07/01 08:22:04;;;;;;;0.70;0.70;;;21.90;99.90;;;;;;5031417;28;20214;-72
2022/07/01 08:24:30;;;;;;;0.75;0.75;;;21.70;99.90;;;;;;5023644;28;20201;-71
2022/07/01 08:26:56;;;;;;;1.00;1.00;;;21.30;99.90;;;;;;5023044;28;20732;-71
2022/07/01 08:29:21;;;;;;;0.77;0.77;;;21.00;99.90;;;;;;5021686;28;20168;-72
2022/07/01 08:31:47;;;;;;;1.13;0.88;;;20.70;99.90;;;;;;5022921;28;20199;-72
2022/07/01 08:34:13;;;;;;;0.90;0.90;;;20.90;99.90;;;;;;5024175;28;20207;-72
2022/07/01 08:36:38;;;;;;;0.90;0.90;;;21.10;99.90;;;;;;5018017;28;20181;-73
2022/07/01 08:39:04;;;;;;;1.35;1.25;;;21.30;99.90;;;;;;5022833;28;20500;-72
2022/07/01 08:41:30;;;;;;;1.30;1.20;;;21.40;99.90;;;;;;5020833;28;20196;-72
2022/07/01 08:43:55;;;;;;;1.00;1.00;;;21.80;99.90;;;;;;5029135;28;20209;-72
2022/07/01 08:46:26;;;;;;;1.05;1.05;;;22.40;99.90;;;;;;5027568;28;20683;-72
2022/07/01 08:48:51;;;;;;;1.00;1.00;;;23.20;99.90;;;;;;5027089;28;20173;-72
2022/07/01 08:51:17;;;;;;;0.82;0.82;;;24.20;99.90;;;;;;5018422;28;20193;-77
2022/07/01 08:53:43;;;;;;;0.73;0.70;;;24.70;99.90;;;;;;5018862;28;20204;-77
2022/07/01 08:58:53;;;;;;;0.80;0.80;;;25.20;99.90;;;;;;5032868;28;20279;-74
2022/07/01 09:01:22;;;;;;;0.80;0.80;;;25.00;99.90;;;;;;5028330;28;20160;-73
2022/07/01 09:03:49;;;;;;;0.90;0.90;;;24.60;99.90;;;;;;5021139;28;20655;-73
2022/07/01 09:06:17;;;;;;;0.80;0.80;;;24.70;99.90;;;;;;5028138;28;20222;-74
2022/07/01 09:08:44;;;;;;;1.05;1.00;;;24.90;99.90;;;;;;5012272;28;20182;-74
2022/07/01 09:11:24;;;;;;;0.90;0.90;;;24.70;99.90;;;;;;5008442;28;20573;-74
2022/07/01 09:14:11;;;;;;;0.95;0.95;;;24.50;99.90;;;;;;5010139;28;20219;-73
2022/07/01 09:16:48;;;;;;;1.48;1.45;;;24.70;99.90;;;;;;5009244;28;20185;-76
2022/07/01 09:19:15;;;;;;;1.58;1.48;;;24.80;99.90;;;;;;5010724;28;20176;-76
2022/07/01 09:21:42;;;;;;;1.13;1.13;;;24.80;99.90;;;;;;5020805;28;20679;-76
2022/07/01 09:24:33;;;;;;;0.95;0.95;;;24.60;99.90;;;;;;5020873;28;20223;-75
2022/07/01 09:27:13;;;;;;;0.93;0.93;;;24.50;99.90;;;;;;5019815;28;20251;-75
2022/07/01 09:29:52;;;;;;;1.45;0.80;;;24.40;99.90;;;;;;5025662;28;20176;-77
2022/07/01 09:32:22;;;;;;;2.65;0.80;;;24.40;99.90;;;;;;5035802;28;20584;-76
2022/07/01 09:34:54;;;;;;;0.57;0.57;;;24.30;99.90;;;;;;5033677;28;20196;-76
2022/07/01 09:37:21;;;;;;;1.83;0.90;;;24.50;99.90;;;;;;5020919;28;20199;-75
2022/07/01 09:39:49;;;;;;;0.98;0.85;;;24.50;99.90;;;;;;5027099;28;20655;-75
2022/07/01 09:42:18;;;;;;;0.73;0.73;;;24.10;99.90;;;;;;5039499;28;20171;-75
2022/07/01 09:44:53;;;;;;;0.60;0.55;;;23.70;99.90;;;;;;5023540;28;20637;-75
2022/07/01 09:47:31;;;;;;;0.80;0.80;;;23.50;99.90;;;;;;5021893;28;20255;-77
2022/07/01 09:49:57;;;;;;;1.30;0.90;;;23.30;99.90;;;;;;5019940;28;20221;-76
2022/07/01 09:52:24;;;;;;;2.28;0.93;;;22.90;99.90;;;;;;5019652;28;20593;-76
2022/07/01 09:54:50;;;;;;;3.42;0.90;;;22.50;99.90;;;;;;5019522;28;20195;-76
2022/07/01 09:57:17;;;;;;;0.85;0.85;;;22.40;99.90;;;;;;5021239;28;20173;-76
2022/07/01 09:59:44;;;;;;;0.90;0.90;;;22.40;99.90;;;;;;5020407;28;20188;-76
2022/07/01 10:02:11;;;;;;;1.13;1.13;;;22.70;99.90;;;;;;5019487;28;20212;-76
2022/07/01 10:04:40;;;;;;;2.78;0.88;;;23.10;99.90;;;;;;5019448;28;20683;-76
2022/07/01 10:07:31;;;;;;;1.05;1.02;;;23.40;99.90;;;;;;5021607;28;20220;-76
2022/07/01 10:10:17;;;;;;;1.13;1.13;;;23.40;99.90;;;;;;5026269;28;20717;-76
2022/07/01 10:12:48;;;;;;;0.90;0.90;;;23.10;99.90;;;;;;5041001;28;20216;-75
2022/07/01 10:15:18;;;;;;;1.20;1.10;;;22.70;99.90;;;;;;5021541;28;20712;-76
2022/07/01 10:17:46;;;;;;;0.90;0.90;;;22.00;99.90;;;;;;5021178;28;20707;-81
2022/07/01 10:20:17;;;;;;;0.90;0.90;;;21.30;99.90;;;;;;5029593;28;20184;-78
2022/07/01 10:22:45;;;;;;;1.38;1.30;;;20.70;99.90;;;;;;5045567;28;20238;-80
2022/07/01 10:25:41;;;;;;;1.15;1.15;;;20.10;99.90;;;;;;5039732;28;20205;-83
2022/07/01 10:28:13;;;;;;;1.15;1.15;;;19.80;99.90;;;;;;5043056;28;20205;-82
2022/07/01 10:31:04;;;;;;;1.05;1.05;;;19.90;99.90;;;;;;5040795;28;20200;-84
2022/07/01 10:33:50;;;;;;;1.08;1.08;;;20.20;99.90;;;;;;5041245;28;20195;-79
2022/07/01 10:36:22;;;;;;;1.00;1.00;;;20.80;99.90;;;;;;5019453;28;20185;-79
2022/07/01 10:41:35;;;;;;;1.20;1.20;;;21.30;99.90;;;;;;5026408;28;20197;-78
2022/07/01 10:44:06;;;;;;;1.15;1.05;;;21.20;99.90;;;;;;5035524;28;20196;-79
2022/07/01 10:47:01;;;;;;;0.95;0.95;;;20.90;99.90;;;;;;5018729;28;20227;-71
2022/07/01 10:49:35;;;;;;;1.40;1.30;;;21.10;99.90;;;;;;5022963;28;20203;-75
2022/07/01 10:52:05;;;;;;;1.30;1.30;;;21.30;99.90;;;;;;5031296;28;20671;-74
2022/07/01 10:54:34;;;;;;;1.25;1.25;;;21.80;99.90;;;;;;5031248;28;20208;-74
2022/07/01 10:57:19;;;;;;;1.00;1.00;;;22.00;99.90;;;;;;5034708;28;20252;-75
2022/07/01 10:59:49;;;;;;;1.52;1.42;;;22.30;99.90;;;;;;5014678;28;20726;-75
2022/07/01 11:02:19;;;;;;;1.45;1.35;;;22.20;99.90;;;;;;5024547;28;20169;-76
2022/07/01 11:04:45;;;;;;;1.30;1.30;;;22.20;99.90;;;;;;5014911;28;20201;-75
2022/07/01 11:07:11;;;;;;;1.50;1.40;;;22.30;99.90;;;;;;5019712;28;20746;-75
2022/07/01 11:09:37;;;;;;;1.55;1.45;;;22.10;99.90;;;;;;5024140;28;20235;-75
2022/07/01 11:12:04;;;;;;;1.25;1.25;;;22.10;99.90;;;;;;5022638;28;20173;-75
2022/07/01 11:14:34;;;;;;;2.25;1.30;;;21.90;99.90;;;;;;5023511;28;20656;-74
2022/07/01 11:17:01;;;;;;;1.10;1.10;;;21.70;99.90;;;;;;5020297;28;20203;-75
2022/07/01 11:19:27;;;;;;;1.05;0.98;;;21.60;99.90;;;;;;5024655;28;20180;-75
2022/07/01 11:21:54;;;;;;;1.00;1.00;;;21.40;99.90;;;;;;5023284;28;20641;-75
2022/07/01 11:24:21;;;;;;;0.90;0.90;;;21.30;99.90;;;;;;5024384;28;20203;-76
2022/07/01 11:26:47;;;;;;;1.00;0.80;;;21.00;99.90;;;;;;5022679;28;20208;-77
2022/07/01 11:29:15;;;;;;;0.95;0.95;;;20.80;99.90;;;;;;5025803;28;20224;-76
2022/07/01 11:31:41;;;;;;;1.80;1.10;;;20.80;99.90;;;;;;5022654;28;20189;-76
2022/07/01 11:34:07;;;;;;;0.93;0.93;;;20.70;99.90;;;;;;5023820;28;20793;-76
2022/07/01 11:39:22;;;;;;;0.95;0.95;;;20.90;99.90;;;;;;5017254;28;20192;-76
2022/07/01 11:41:59;;;;;;;1.40;1.13;;;21.20;99.90;;;;;;5013545;28;20185;-76
2022/07/01 11:44:32;;;;;;;1.08;1.00;;;21.20;99.90;;;;;;5014432;28;20200;-75
2022/07/01 11:46:59;;;;;;;1.23;0.80;;;21.10;99.90;;;;;;5022269;28;20291;-75
2022/07/01 11:49:25;;;;;;;0.98;0.98;;;20.80;99.90;;;;;;5021804;28;20260;-77
2022/07/01 11:52:02;;;;;;;8.38;1.15;;;20.70;99.90;;;;;;5012165;28;20289;-74
2022/07/01 11:54:29;;;;;;;0.70;0.70;;;20.80;99.90;;;;;;5014200;28;20193;-75
2022/07/01 11:56:54;;;;;;;0.70;0.70;;;20.90;99.90;;;;;;5028989;28;20184;-75
2022/07/01 11:59:20;;;;;;;0.82;0.77;;;20.80;99.90;;;;;;5029873;28;20683;-75
2022/07/01 12:01:54;;;;;;;1.10;0.70;;;20.70;99.90;;;;;;5034667;28;20184;-75
2022/07/01 12:04:20;;;;;;;1.30;1.30;;;20.50;99.90;;;;;;5038407;28;20707;-75
2022/07/01 12:06:46;;;;;;;2.45;1.67;;;20.40;99.90;;;;;;5039896;28;20571;-75
2022/07/01 12:09:21;;;;;;;1.60;1.50;;;20.30;99.90;;;;;;5033421;28;20315;-76
2022/07/01 12:11:53;;;;;;;3.83;3.47;;;20.20;99.90;;;;;;5033247;28;20228;-76
2022/07/01 12:14:30;;;;;;;1.65;1.55;;;20.30;99.90;;;;;;5033651;28;20323;-77
2022/07/01 12:16:59;;;;;;;1.77;1.65;;;20.30;99.90;;;;;;5018480;28;20656;-76
2022/07/01 12:19:41;;;;;;;0.55;0.55;;;20.30;99.90;;;;;;5013540;28;20177;-77
2022/07/01 12:22:10;;;;;;;1.13;0.85;;;20.20;99.90;;;;;;5026061;28;20188;-78
2022/07/01 12:24:36;;;;;;;0.70;0.70;;;20.00;99.90;;;;;;5023271;28;20201;-79
2022/07/01 12:27:04;;;;;;;0.52;0.52;;;19.90;99.90;;;;;;5020491;28;20218;-79
2022/07/01 12:29:50;;;;;;;0.57;0.57;;;20.00;99.90;;;;;;5028823;28;20183;-77
2022/07/01 12:32:24;;;;;;;1.30;0.38;;;19.90;99.90;;;;;;5023689;28;20189;-78
2022/07/01 12:35:01;;;;;;;0.70;0.70;;;19.90;99.90;;;;;;5022784;28;20188;-80
2022/07/01 12:37:28;;;;;;;0.80;0.75;;;19.90;99.90;;;;;;5021132;28;20242;-77
2022/07/01 12:40:00;;;;;;;1.75;0.80;;;19.80;99.90;;;;;;5024789;28;20648;-80
2022/07/01 12:42:29;;;;;;;0.85;0.40;;;19.80;99.90;;;;;;5024573;28;20177;-79
2022/07/01 12:44:58;;;;;;;1.33;0.50;;;19.80;99.90;;;;;;5026284;28;20199;-78
2022/07/01 12:47:34;;;;;;;1.13;0.47;;;19.90;99.90;;;;;;5023703;28;20196;-78
2022/07/01 12:50:13;;;;;;;1.98;0.65;;;19.90;99.90;;;;;;5026770;28;20177;-79
2022/07/01 12:52:43;;;;;;;0.73;0.47;;;19.80;99.90;;;;;;5024851;28;20169;-79
2022/07/01 12:55:22;;;;;;;0.55;0.50;;;19.80;99.90;;;;;;5022846;28;20240;-78
2022/07/01 12:57:53;;;;;;;0.68;0.60;;;19.80;99.90;;;;;;5024674;28;20530;-79
2022/07/01 13:00:20;;;;;;;0.40;0.40;;;19.80;99.90;;;;;;5025819;28;20173;-79
2022/07/01 13:02:47;;;;;;;0.50;0.47;;;19.80;99.90;;;;;;5026693;28;20169;-80
2022/07/01 13:05:13;;;;;;;0.55;0.55;;;19.80;99.90;;;;;;5020924;28;20204;-80
2022/07/01 13:07:39;;;;;;;0.77;0.77;;;19.80;99.90;;;;;;5024412;28;20201;-80